Time;durP1;ratioP1;P1;durP2;ratioP2;P2;SDS_P1;SDS_P2;PMS_P1;PMS_P2;Temp;Humidity;BMP_temperature;BMP_pressure;BME280_temperature;BME280_humidity;BME280_pressure;Samples;Min_cycle;Max_cycle;Signal;HPM_P1;HPM_P2
2022/11/22 00:00:13;;;;;;;22.55;8.55;;;;;;;0.41;100.00;93639.72;4971358;28;20125;-73
2022/11/22 00:02:59;;;;;;;15.93;6.28;;;;;;;0.44;100.00;93644.38;4971509;28;20085;-74
2022/11/22 00:05:25;;;;;;;14.13;5.90;;;;;;;0.52;100.00;93654.28;4970262;28;20486;-73
2022/11/22 00:07:51;;;;;;;15.70;6.90;;;;;;;0.49;100.00;93641.84;4950503;28;20042;-73
2022/11/22 00:10:16;;;;;;;20.20;7.13;;;;;;;0.51;100.00;93644.94;4953891;28;20038;-72
2022/11/22 00:12:43;;;;;;;15.02;6.25;;;;;;;0.56;100.00;93635.66;4970465;28;20381;-73
2022/11/22 00:15:09;;;;;;;15.18;6.50;;;;;;;0.58;100.00;93633.59;4970992;28;20054;-73
2022/11/22 00:17:35;;;;;;;15.35;6.40;;;;;;;0.58;100.00;93633.59;4970517;28;20093;-73
2022/11/22 00:20:01;;;;;;;15.57;6.05;;;;;;;0.59;100.00;93635.13;4973758;28;20042;-73
2022/11/22 00:22:26;;;;;;;12.82;6.43;;;;;;;0.45;100.00;93625.25;4984725;28;20093;-73
2022/11/22 00:24:52;;;;;;;15.75;6.57;;;;;;;0.49;100.00;93631.50;4980558;28;20038;-72
2022/11/22 00:27:19;;;;;;;18.23;7.18;;;;;;;0.56;100.00;93635.66;4983477;28;20047;-73
2022/11/22 00:29:44;;;;;;;14.07;6.20;;;;;;;0.67;100.00;93632.06;4989381;28;20039;-73
2022/11/22 00:32:10;;;;;;;15.73;6.72;;;;;;;0.67;100.00;93622.47;4992809;28;20041;-72
2022/11/22 00:34:53;;;;;;;14.80;6.65;;;;;;;0.77;100.00;93637.28;4941108;29;20097;-73
2022/11/22 00:37:19;;;;;;;16.23;6.85;;;;;;;0.76;100.00;93633.16;4973057;28;20043;-74
2022/11/22 00:39:45;;;;;;;15.52;6.40;;;;;;;0.80;100.00;93636.78;4974500;28;20050;-74
2022/11/22 00:42:10;;;;;;;16.95;7.00;;;;;;;0.83;100.00;93641.47;4974755;28;20043;-74
2022/11/22 00:44:35;;;;;;;20.95;8.23;;;;;;;0.81;100.00;93640.94;4965532;28;20066;-74
2022/11/22 00:47:01;;;;;;;17.73;7.30;;;;;;;0.82;100.00;93645.09;4960631;28;20118;-73
2022/11/22 00:49:27;;;;;;;15.70;6.95;;;;;;;0.89;100.00;93654.41;4973343;28;20520;-74
2022/11/22 00:51:52;;;;;;;17.20;6.72;;;;;;;0.95;100.00;93658.56;4973626;28;20035;-74
2022/11/22 00:54:18;;;;;;;14.18;5.53;;;;;;;0.96;100.00;93660.13;4956115;28;20055;-74
2022/11/22 00:56:43;;;;;;;13.35;5.43;;;;;;;1.06;100.00;93657.56;4957025;28;20067;-74
2022/11/22 00:59:09;;;;;;;13.30;5.32;;;;;;;1.11;100.00;93647.25;4973210;28;20109;-74
2022/11/22 01:01:34;;;;;;;12.48;5.35;;;;;;;1.14;100.00;93657.09;4973577;28;20046;-74
2022/11/22 01:04:00;;;;;;;12.15;5.00;;;;;;;1.12;100.00;93664.34;4972938;28;20043;-74
2022/11/22 01:06:26;;;;;;;13.27;5.20;;;;;;;1.09;100.00;93669.25;4954277;29;20047;-74
2022/11/22 01:08:51;;;;;;;11.48;4.90;;;;;;;1.16;100.00;93669.78;4970937;28;20043;-74
2022/11/22 01:11:18;;;;;;;11.75;4.88;;;;;;;1.17;100.00;93655.81;4973305;28;20047;-74
2022/11/22 01:13:43;;;;;;;11.02;4.63;;;;;;;1.19;100.00;93675.25;4969591;28;20104;-74
2022/11/22 01:16:10;;;;;;;10.18;4.43;;;;;;;1.23;100.00;93659.19;4973363;28;20500;-74
2022/11/22 01:18:36;;;;;;;15.73;4.95;;;;;;;1.17;100.00;93656.56;4972835;28;20039;-74
2022/11/22 01:21:02;;;;;;;10.85;4.82;;;;;;;1.15;100.00;93653.47;4960374;28;20519;-74
2022/11/22 01:23:28;;;;;;;9.02;4.57;;;;;;;1.08;100.00;93671.06;4962891;28;20058;-74
2022/11/22 01:25:53;;;;;;;10.27;4.47;;;;;;;1.15;100.00;93663.84;4963662;28;20490;-74
2022/11/22 01:28:20;;;;;;;10.35;4.82;;;;;;;1.07;100.00;93651.38;4968293;28;20069;-74
2022/11/22 01:30:49;;;;;;;12.32;4.82;;;;;;;1.13;100.00;93634.78;4973403;28;20042;-74
2022/11/22 01:33:14;;;;;;;11.52;5.13;;;;;;;1.15;100.00;93648.28;4971822;28;20531;-73
2022/11/22 01:35:40;;;;;;;11.07;4.53;;;;;;;1.19;100.00;93649.34;4968395;28;20043;-73
2022/11/22 01:38:05;;;;;;;15.77;5.18;;;;;;;1.23;100.00;93633.28;4972720;28;20050;-73
2022/11/22 01:40:31;;;;;;;11.38;4.38;;;;;;;1.27;100.00;93626.56;4973690;28;20078;-73
2022/11/22 01:42:59;;;;;;;9.68;4.50;;;;;;;1.30;100.00;93628.63;4972638;28;20062;-74
2022/11/22 01:45:33;;;;;;;8.80;4.57;;;;;;;1.34;100.00;93629.66;4937646;29;20114;-73
2022/11/22 01:48:15;;;;;;;9.32;4.15;;;;;;;1.27;100.00;93623.97;4963830;28;20564;-73
2022/11/22 01:50:45;;;;;;;19.50;4.15;;;;;;;1.28;100.00;93622.91;4973074;28;20049;-74
2022/11/22 01:53:17;;;;;;;8.98;4.32;;;;;;;1.28;100.00;93620.31;4968416;28;20038;-74
2022/11/22 01:55:44;;;;;;;7.63;3.92;;;;;;;1.27;100.00;93623.97;4956508;28;20405;-74
2022/11/22 01:58:12;;;;;;;9.13;3.83;;;;;;;1.23;100.00;93628.09;4957646;28;20039;-74
2022/11/22 02:00:38;;;;;;;10.40;3.97;;;;;;;1.28;100.00;93626.28;4972754;28;20042;-74
2022/11/22 02:03:07;;;;;;;8.82;3.65;;;;;;;1.30;100.00;93620.84;4969629;28;20057;-74
2022/11/22 02:05:34;;;;;;;9.10;4.03;;;;;;;1.35;100.00;93626.03;4972094;28;20035;-74
2022/11/22 02:08:04;;;;;;;7.78;3.60;;;;;;;1.42;100.00;93623.97;4971017;28;20042;-74
2022/11/22 02:10:36;;;;;;;6.75;3.47;;;;;;;1.46;100.00;93627.59;4972158;28;20047;-74
2022/11/22 02:13:03;;;;;;;8.23;3.63;;;;;;;1.54;100.00;93624.50;4958710;28;20038;-74
2022/11/22 02:15:29;;;;;;;6.95;3.72;;;;;;;1.71;100.00;93639.00;4971902;28;20043;-74
2022/11/22 02:17:57;;;;;;;9.45;3.00;;;;;;;1.80;100.00;93634.88;4971624;28;20050;-74
2022/11/22 02:20:23;;;;;;;8.23;2.80;;;;;;;1.84;100.00;93638.50;4965567;28;20119;-74
2022/11/22 02:23:01;;;;;;;6.38;2.60;;;;;;;2.05;100.00;93638.47;4971760;28;20051;-74
2022/11/22 02:25:28;;;;;;;5.22;2.47;;;;;;;2.21;100.00;93642.63;4969845;28;20054;-74
2022/11/22 02:27:54;;;;;;;5.95;2.75;;;;;;;2.40;100.00;93644.66;4971751;28;20050;-74
2022/11/22 02:30:20;;;;;;;4.90;2.28;;;;;;;2.69;100.00;93633.69;4954748;28;20105;-74
2022/11/22 02:32:46;;;;;;;5.28;1.90;;;;;;;2.76;100.00;93632.34;4972059;28;20050;-74
2022/11/22 02:35:23;;;;;;;2.83;1.67;;;;;;;2.84;100.00;93628.41;4953344;28;20047;-74
2022/11/22 02:37:53;;;;;;;4.28;2.08;;;;;;;2.72;100.00;93636.50;4971902;28;20130;-74
2022/11/22 02:40:20;;;;;;;5.15;1.70;;;;;;;2.81;100.00;93639.31;4972085;28;20051;-74
2022/11/22 02:42:53;;;;;;;3.80;1.92;;;;;;;2.62;100.00;93646.16;4971190;28;20093;-74
2022/11/22 02:45:18;;;;;;;4.32;1.92;;;;;;;2.54;100.00;93639.69;4970408;28;20070;-74
2022/11/22 02:47:44;;;;;;;3.42;1.63;;;;;;;2.58;100.00;93641.47;4971006;28;20042;-74
2022/11/22 02:50:09;;;;;;;3.13;1.75;;;;;;;2.73;100.00;93650.25;4967160;28;20039;-74
2022/11/22 02:52:35;;;;;;;3.45;1.67;;;;;;;2.66;100.00;93647.97;4968057;28;20054;-75
2022/11/22 02:55:00;;;;;;;3.03;1.33;;;;;;;2.60;100.00;93649.00;4969380;28;20047;-74
2022/11/22 02:57:26;;;;;;;2.05;1.30;;;;;;;2.63;100.00;93656.28;4966057;28;20047;-74
2022/11/22 02:59:51;;;;;;;3.60;1.58;;;;;;;2.69;100.00;93659.66;4971296;28;20508;-74
2022/11/22 03:02:17;;;;;;;3.78;1.70;;;;;;;2.76;100.00;93654.94;4971862;28;20412;-74
2022/11/22 03:04:43;;;;;;;3.78;1.35;;;;;;;2.79;100.00;93651.81;4953210;28;20043;-75
2022/11/22 03:07:08;;;;;;;2.65;1.20;;;;;;;2.70;100.00;93658.59;4954181;28;20113;-74
2022/11/22 03:09:34;;;;;;;2.03;1.42;;;;;;;2.66;100.00;93658.34;4971002;28;20042;-74
2022/11/22 03:11:59;;;;;;;1.98;1.38;;;;;;;2.59;100.00;93650.84;4971217;28;20042;-74
2022/11/22 03:14:25;;;;;;;2.42;1.50;;;;;;;2.63;100.00;93648.50;4967962;28;20292;-74
2022/11/22 03:16:51;;;;;;;1.98;1.23;;;;;;;2.65;100.00;93645.63;4970915;28;20042;-74
2022/11/22 03:19:17;;;;;;;1.88;1.42;;;;;;;2.59;100.00;93643.03;4970934;28;20042;-74
2022/11/22 03:21:42;;;;;;;2.95;1.55;;;;;;;2.85;100.00;93645.56;4966130;28;20058;-74
2022/11/22 03:24:09;;;;;;;2.45;1.20;;;;;;;2.98;100.00;93643.44;4959647;28;20390;-74
2022/11/22 03:26:35;;;;;;;1.60;1.20;;;;;;;3.12;100.00;93657.41;4968870;28;20049;-74
2022/11/22 03:29:01;;;;;;;6.40;1.63;;;;;;;3.28;100.00;93656.25;4971108;28;20039;-74
2022/11/22 03:31:27;;;;;;;2.88;1.58;;;;;;;3.45;100.00;93662.94;4970959;28;20053;-74
2022/11/22 03:33:52;;;;;;;2.58;1.30;;;;;;;3.43;100.00;93660.59;4952637;28;20043;-74
2022/11/22 03:36:18;;;;;;;1.38;1.20;;;;;;;3.48;100.00;93667.59;4967518;28;20051;-74
2022/11/22 03:38:43;;;;;;;3.13;1.38;;;;;;;3.52;100.00;93663.41;4970739;28;20126;-74
2022/11/22 03:41:09;;;;;;;2.40;1.40;;;;;;;3.38;100.00;93678.81;4971520;28;20047;-74
2022/11/22 03:43:34;;;;;;;2.03;1.30;;;;;;;3.53;100.00;93680.56;4967727;28;20042;-74
2022/11/22 03:46:00;;;;;;;2.42;1.48;;;;;;;3.60;100.00;93681.03;4952814;28;20046;-74
2022/11/22 03:48:26;;;;;;;2.90;1.52;;;;;;;3.58;100.00;93682.38;4970433;28;20039;-75
2022/11/22 03:50:51;;;;;;;2.63;1.50;;;;;;;3.60;100.00;93683.63;4954086;28;20043;-74
2022/11/22 03:53:17;;;;;;;2.22;1.52;;;;;;;3.55;100.00;93680.28;4957655;28;20046;-74
2022/11/22 03:55:42;;;;;;;2.47;1.50;;;;;;;3.57;100.00;93680.81;4969826;28;20039;-74
2022/11/22 03:58:08;;;;;;;5.57;1.77;;;;;;;3.51;100.00;93676.69;4975275;28;20472;-74
2022/11/22 04:00:34;;;;;;;3.90;1.63;;;;;;;3.45;100.00;93673.34;4974559;28;20050;-74
2022/11/22 04:03:00;;;;;;;4.22;1.70;;;;;;;3.43;100.00;93684.00;4970106;28;20051;-74
2022/11/22 04:05:25;;;;;;;4.18;1.80;;;;;;;3.41;100.00;93677.53;4973521;28;20437;-74
2022/11/22 04:07:57;;;;;;;3.00;1.70;;;;;;;3.44;100.00;93692.59;4974870;28;20046;-74
2022/11/22 04:10:23;;;;;;;3.30;1.50;;;;;;;3.40;100.00;93681.16;4973339;28;20053;-74
2022/11/22 04:12:49;;;;;;;4.07;1.75;;;;;;;3.48;100.00;93683.19;4955778;29;20621;-74
2022/11/22 04:15:14;;;;;;;5.57;1.88;;;;;;;3.41;100.00;93687.91;4971148;28;20051;-74
2022/11/22 04:17:46;;;;;;;4.10;1.90;;;;;;;3.32;100.00;93690.31;4973960;28;20070;-74
2022/11/22 04:23:06;;;;;;;6.57;2.13;;;;;;;3.27;100.00;93683.28;4968312;28;20504;-74
2022/11/22 04:25:35;;;;;;;3.65;1.92;;;;;;;3.22;100.00;93696.34;4941838;29;20047;-74
2022/11/22 04:28:00;;;;;;;5.53;1.95;;;;;;;3.21;100.00;93688.81;4955214;28;20047;-75
2022/11/22 04:33:12;;;;;;;6.45;1.95;;;;;;;3.29;100.00;93691.63;4983432;28;20482;-74
2022/11/22 04:35:38;;;;;;;3.97;1.80;;;;;;;3.37;100.00;93692.88;4973695;28;20077;-75
2022/11/22 04:46:22;;;;;;;3.58;2.08;;;;;;;3.62;100.00;93694.56;4971601;28;20049;-75
2022/11/22 04:48:48;;;;;;;3.20;1.60;;;;;;;3.70;100.00;93689.84;4955893;28;20042;-75
2022/11/22 04:53:58;;;;;;;5.15;1.80;;;;;;;3.73;100.00;93684.09;4973403;28;20047;-74
2022/11/22 04:56:23;;;;;;;2.38;1.45;;;;;;;3.83;100.00;93694.41;4973581;28;20043;-74
2022/11/22 04:58:54;;;;;;;3.58;1.50;;;;;;;3.90;100.00;93689.69;4966731;28;20512;-74
2022/11/22 05:01:19;;;;;;;3.63;2.00;;;;;;;3.91;100.00;93680.84;4969598;28;20061;-74
2022/11/22 05:03:45;;;;;;;8.50;1.75;;;;;;;3.95;100.00;93689.66;4973043;28;20130;-74
2022/11/22 05:06:12;;;;;;;3.08;1.65;;;;;;;3.95;100.00;93689.66;4971677;28;20051;-74
2022/11/22 05:08:37;;;;;;;6.68;2.20;;;;;;;3.99;100.00;93693.28;4956256;28;20437;-74
2022/11/22 05:11:03;;;;;;;4.95;2.38;;;;;;;3.98;100.00;93691.72;4973583;28;20046;-74
2022/11/22 05:13:37;;;;;;;3.80;1.80;;;;;;;3.95;100.00;93687.06;4972844;28;20046;-74
2022/11/22 05:16:05;;;;;;;2.78;1.67;;;;;;;3.98;100.00;93690.94;4973125;28;20045;-74
2022/11/22 05:18:31;;;;;;;2.58;1.50;;;;;;;3.92;100.00;93689.41;4970886;28;20416;-75
2022/11/22 05:20:57;;;;;;;4.25;1.80;;;;;;;3.94;100.00;93695.91;4973331;28;20043;-75
2022/11/22 05:26:07;;;;;;;6.10;1.98;;;;;;;4.04;100.00;93702.88;4966015;28;20055;-75
2022/11/22 05:28:35;;;;;;;5.68;1.88;;;;;;;3.99;100.00;93703.69;4962886;28;20050;-75
2022/11/22 05:31:16;;;;;;;8.40;2.13;;;;;;;3.98;100.00;93712.53;4973290;28;20047;-74
2022/11/22 05:33:43;;;;;;;5.80;1.83;;;;;;;3.96;100.00;93713.84;4946851;29;20046;-75
2022/11/22 05:36:10;;;;;;;9.18;2.63;;;;;;;4.04;100.00;93720.28;4967967;28;20115;-75
2022/11/22 05:38:36;;;;;;;6.05;2.20;;;;;;;4.07;100.00;93710.13;4957310;28;20090;-75
2022/11/22 05:41:04;;;;;;;4.57;1.90;;;;;;;4.06;100.00;93710.41;4961563;28;20047;-75
2022/11/22 05:43:30;;;;;;;9.98;2.08;;;;;;;4.03;100.00;93709.09;4972836;28;20043;-75
2022/11/22 05:46:07;;;;;;;7.18;2.10;;;;;;;4.09;100.00;93715.06;4972718;28;20509;-75
2022/11/22 05:48:33;;;;;;;5.90;1.88;;;;;;;4.13;100.00;93713.47;4962459;28;20039;-75
2022/11/22 05:51:03;;;;;;;6.15;1.95;;;;;;;4.12;100.00;93717.09;4972916;28;20860;-75
2022/11/22 05:53:29;;;;;;;5.03;1.88;;;;;;;4.12;100.00;93711.91;4972377;28;20051;-75
2022/11/22 05:55:54;;;;;;;3.03;1.85;;;;;;;4.14;100.00;93717.63;4971445;28;20101;-76
2022/11/22 05:58:20;;;;;;;3.58;1.75;;;;;;;4.22;100.00;93722.22;4955336;28;20039;-75
2022/11/22 06:00:45;;;;;;;5.40;2.53;;;;;;;4.18;100.00;93721.25;4968672;28;20038;-75
2022/11/22 06:03:11;;;;;;;3.67;2.10;;;;;;;4.15;100.00;93717.34;4967619;28;20053;-76
2022/11/22 06:05:36;;;;;;;4.68;2.30;;;;;;;4.12;100.00;93711.91;4965025;28;20039;-76
2022/11/22 06:08:02;;;;;;;6.00;2.35;;;;;;;4.18;100.00;93713.44;4972234;28;20101;-76
2022/11/22 06:10:33;;;;;;;4.60;2.22;;;;;;;4.14;100.00;93715.03;4968836;28;20386;-76
2022/11/22 06:13:01;;;;;;;5.55;2.03;;;;;;;4.14;100.00;93720.22;4953253;28;20046;-75
2022/11/22 06:15:26;;;;;;;5.22;2.33;;;;;;;4.15;100.00;93716.56;4972577;28;20051;-76
2022/11/22 06:17:52;;;;;;;5.15;2.75;;;;;;;4.13;100.00;93719.44;4968066;28;20035;-76
2022/11/22 06:20:17;;;;;;;7.65;2.72;;;;;;;4.10;100.00;93714.00;4971229;28;20114;-76
2022/11/22 06:22:43;;;;;;;9.32;2.38;;;;;;;4.09;100.00;93712.44;4972268;28;20051;-76
2022/11/22 06:25:08;;;;;;;8.73;2.83;;;;;;;4.10;100.00;93712.19;4968868;28;20053;-73
2022/11/22 06:27:34;;;;;;;6.32;2.65;;;;;;;4.16;100.00;93718.13;4957156;28;20039;-73
2022/11/22 06:29:59;;;;;;;8.27;3.03;;;;;;;4.10;100.00;93719.22;4971976;28;20093;-73
2022/11/22 06:32:25;;;;;;;5.93;2.63;;;;;;;4.14;100.00;93720.22;4971963;28;20049;-74
2022/11/22 06:34:51;;;;;;;6.28;2.90;;;;;;;4.11;100.00;93726.75;4965020;28;20119;-75
2022/11/22 06:37:16;;;;;;;6.38;2.88;;;;;;;4.12;100.00;93730.13;4966469;28;20046;-74
2022/11/22 06:39:42;;;;;;;9.98;2.90;;;;;;;4.10;100.00;93742.66;4970793;28;20540;-74
2022/11/22 06:42:13;;;;;;;10.32;3.20;;;;;;;4.10;100.00;93740.03;5087738;28;21289;-75
2022/11/22 06:44:39;;;;;;;6.00;2.80;;;;;;;4.08;100.00;93747.34;5046883;28;20037;-75
2022/11/22 06:47:05;;;;;;;5.22;2.67;;;;;;;4.05;100.00;93753.09;5057043;28;20060;-75
2022/11/22 06:49:30;;;;;;;9.82;2.92;;;;;;;4.10;100.00;93755.66;5063779;28;20115;-75
2022/11/22 06:51:56;;;;;;;8.10;3.00;;;;;;;4.11;100.00;93752.03;5055004;28;20045;-76
2022/11/22 06:54:21;;;;;;;5.57;2.95;;;;;;;4.11;100.00;93759.84;5053332;28;20040;-76
2022/11/22 06:56:47;;;;;;;6.00;2.58;;;;;;;4.15;100.00;93769.44;5057385;28;20522;-74
2022/11/22 06:59:13;;;;;;;5.97;3.10;;;;;;;4.16;100.00;93770.19;5056827;28;20043;-76
2022/11/22 07:01:38;;;;;;;9.98;3.38;;;;;;;4.16;100.00;93770.19;5063498;28;20041;-74
2022/11/22 07:04:04;;;;;;;7.40;3.17;;;;;;;4.13;100.00;93787.13;5058520;28;20053;-72
2022/11/22 07:06:33;;;;;;;6.10;3.00;;;;;;;4.24;100.00;93789.66;5050724;28;20049;-73
2022/11/22 07:08:59;;;;;;;7.03;3.50;;;;;;;4.25;100.00;93784.19;5063135;28;20402;-74
2022/11/22 07:11:27;;;;;;;13.48;3.67;;;;;;;4.27;100.00;93787.31;5061630;28;20037;-74
2022/11/22 07:13:55;;;;;;;6.65;3.17;;;;;;;4.18;100.00;93788.94;5066360;28;20048;-74
2022/11/22 07:16:21;;;;;;;9.55;3.30;;;;;;;4.18;100.00;93794.16;5066081;28;20045;-75
2022/11/22 07:18:47;;;;;;;8.05;3.20;;;;;;;4.18;100.00;93798.56;5060911;28;20044;-75
2022/11/22 07:21:18;;;;;;;10.57;3.60;;;;;;;4.08;100.00;93794.19;5064988;28;20041;-74
2022/11/22 07:23:46;;;;;;;9.85;4.20;;;;;;;4.11;100.00;93798.88;5064121;28;20056;-74
2022/11/22 07:26:13;;;;;;;11.35;4.03;;;;;;;4.15;100.00;93805.06;5065838;28;20044;-75
2022/11/22 07:28:39;;;;;;;11.63;3.80;;;;;;;4.14;100.00;93808.75;5065771;28;20127;-76
2022/11/22 07:31:07;;;;;;;11.73;4.03;;;;;;;4.13;100.00;93813.16;5065422;28;20409;-75
2022/11/22 07:33:33;;;;;;;13.38;4.57;;;;;;;4.22;100.00;93810.75;5064090;28;20045;-76
2022/11/22 07:36:04;;;;;;;15.75;4.68;;;;;;;4.14;100.00;93824.38;5051941;28;20639;-75
2022/11/22 07:38:30;;;;;;;9.65;4.18;;;;;;;4.19;100.00;93816.50;5063847;28;20044;-75
2022/11/22 07:40:55;;;;;;;12.60;4.10;;;;;;;4.20;100.00;93833.69;5066198;28;20603;-76
2022/11/22 07:43:21;;;;;;;12.93;4.18;;;;;;;4.21;100.00;93835.25;5065642;28;20041;-77
2022/11/22 07:45:46;;;;;;;11.18;4.43;;;;;;;4.13;100.00;93838.44;5051053;28;20099;-76
2022/11/22 07:48:13;;;;;;;12.95;4.10;;;;;;;4.28;100.00;93835.75;5060278;28;20094;-75
2022/11/22 07:50:40;;;;;;;12.75;4.60;;;;;;;4.18;100.00;93846.22;5065597;28;20055;-74
2022/11/22 07:53:07;;;;;;;18.73;4.68;;;;;;;4.16;100.00;93853.50;5055729;28;20045;-75
2022/11/22 07:55:32;;;;;;;15.27;5.07;;;;;;;4.13;100.00;93859.25;5050424;28;20037;-75
2022/11/22 07:58:00;;;;;;;12.70;4.80;;;;;;;4.14;100.00;93866.78;5052580;28;20530;-74
2022/11/22 08:00:25;;;;;;;14.68;4.85;;;;;;;4.18;100.00;93867.06;5051129;28;20045;-74
2022/11/22 08:02:51;;;;;;;20.42;5.10;;;;;;;4.13;100.00;93865.22;5049987;28;20066;-74
2022/11/22 08:05:17;;;;;;;19.60;4.60;;;;;;;4.18;100.00;93872.25;5049002;28;20087;-74
2022/11/22 08:07:47;;;;;;;11.90;4.60;;;;;;;4.15;100.00;93867.56;5050522;28;20047;-74
2022/11/22 08:10:13;;;;;;;31.27;5.40;;;;;;;4.11;100.00;93866.56;5052595;28;20048;-74
2022/11/22 08:12:39;;;;;;;13.18;5.07;;;;;;;4.11;100.00;93866.56;5051578;28;20091;-73
2022/11/22 08:15:06;;;;;;;14.75;5.25;;;;;;;4.18;100.00;93872.25;5051289;28;20049;-74
2022/11/22 08:17:31;;;;;;;15.52;5.53;;;;;;;4.12;100.00;93878.53;5043802;28;20046;-74
2022/11/22 08:19:57;;;;;;;10.18;5.22;;;;;;;4.17;100.00;93886.31;5052080;28;20414;-74
2022/11/22 08:22:22;;;;;;;13.57;5.30;;;;;;;4.14;100.00;93885.03;5050968;28;20036;-74
2022/11/22 08:24:48;;;;;;;13.10;5.60;;;;;;;4.13;100.00;93890.50;5050544;28;20041;-75
2022/11/22 08:27:13;;;;;;;16.73;5.07;;;;;;;4.13;100.00;93890.50;5038857;28;20045;-74
2022/11/22 08:29:39;;;;;;;13.80;5.22;;;;;;;4.18;100.00;93893.09;5040023;28;20042;-73
2022/11/22 08:32:05;;;;;;;18.30;4.97;;;;;;;4.16;100.00;93900.38;5042265;28;20605;-74
2022/11/22 08:34:30;;;;;;;12.52;4.78;;;;;;;4.30;100.00;93901.34;5039984;28;20557;-77
2022/11/22 08:36:56;;;;;;;13.32;5.25;;;;;;;4.21;100.00;93905.56;5030675;28;20053;-77
2022/11/22 08:39:21;;;;;;;18.95;5.47;;;;;;;4.24;100.00;93912.84;5040737;28;20048;-74
2022/11/22 08:41:47;;;;;;;20.45;6.95;;;;;;;4.30;100.00;93922.16;5039127;28;20531;-74
2022/11/22 08:44:12;;;;;;;18.83;6.07;;;;;;;4.38;100.00;93923.44;5031988;28;20088;-75
2022/11/22 08:46:38;;;;;;;17.42;6.20;;;;;;;4.32;100.00;93920.09;5043234;28;20102;-74
2022/11/22 08:49:05;;;;;;;23.02;7.60;;;;;;;4.33;100.00;93921.63;5042516;28;20348;-75
2022/11/22 08:51:32;;;;;;;15.82;6.00;;;;;;;4.36;100.00;93920.31;5051469;28;20044;-76
2022/11/22 08:53:58;;;;;;;53.42;19.17;;;;;;;4.29;100.00;93918.00;5042592;28;20095;-74
2022/11/22 08:56:23;;;;;;;20.67;6.15;;;;;;;4.37;100.00;93932.31;5038542;28;20041;-75
2022/11/22 08:58:49;;;;;;;23.90;10.23;;;;;;;4.38;100.00;93930.47;5050587;28;20564;-75
2022/11/22 09:01:17;;;;;;;21.73;7.47;;;;;;;4.39;100.00;93937.25;5049447;28;20072;-74
2022/11/22 09:03:44;;;;;;;28.15;8.73;;;;;;;4.46;100.00;93940.34;5037929;28;20080;-74
2022/11/22 09:06:12;;;;;;;18.88;6.93;;;;;;;4.48;100.00;93939.03;5050360;28;20045;-74
2022/11/22 09:08:38;;;;;;;17.17;4.95;;;;;;;4.43;100.00;93940.88;5050769;28;20033;-74
2022/11/22 09:11:07;;;;;;;18.48;4.80;;;;;;;4.44;100.00;93952.81;5048999;28;20510;-75
2022/11/22 09:13:33;;;;;;;13.30;5.35;;;;;;;4.48;100.00;93948.66;5049037;28;20041;-76
2022/11/22 09:16:03;;;;;;;21.67;6.35;;;;;;;4.47;100.00;93952.31;5050209;28;20051;-74
2022/11/22 09:18:29;;;;;;;25.17;8.73;;;;;;;4.49;100.00;93950.22;5039013;28;20055;-77
2022/11/22 09:21:03;;;;;;;16.20;5.55;;;;;;;4.48;100.00;93961.66;5046809;28;20387;-75
2022/11/22 09:23:29;;;;;;;21.10;6.18;;;;;;;4.50;100.00;93960.34;5049947;28;20115;-75
2022/11/22 09:25:59;;;;;;;21.27;6.80;;;;;;;4.58;100.00;93964.22;5050473;28;20036;-75
2022/11/22 09:28:26;;;;;;;21.40;6.88;;;;;;;4.58;100.00;93969.44;5047801;28;20048;-74
2022/11/22 09:31:06;;;;;;;19.10;6.20;;;;;;;4.54;100.00;93963.22;5050321;28;20047;-75
2022/11/22 09:33:33;;;;;;;20.50;6.00;;;;;;;4.60;100.00;93974.41;5041309;28;20041;-74
2022/11/22 09:36:03;;;;;;;15.55;5.43;;;;;;;4.62;100.00;93965.25;5047929;28;20048;-75
2022/11/22 09:38:29;;;;;;;17.88;5.75;;;;;;;4.57;100.00;93967.88;5050329;28;20045;-75
2022/11/22 09:40:56;;;;;;;18.45;5.50;;;;;;;4.59;100.00;93976.19;5051106;28;20506;-75
2022/11/22 09:43:52;;;;;;;18.05;4.18;;;;;;;4.58;100.00;93974.63;5048281;28;20041;-74
2022/11/22 09:46:39;;;;;;;13.85;5.18;;;;;;;4.65;100.00;93985.53;5062858;28;20474;-74
2022/11/22 09:49:26;;;;;;;15.25;4.65;;;;;;;4.64;100.00;93978.78;5040498;28;20030;-75
2022/11/22 09:52:01;;;;;;;15.20;4.50;;;;;;;4.67;100.00;93983.47;5035297;28;20057;-74
2022/11/22 09:54:29;;;;;;;;;;;;;;;4.71;100.00;93982.91;5044836;28;20094;-74
2022/11/22 09:57:00;;;;;;;14.77;4.90;;;;;;;4.70;100.00;93976.94;5052593;28;19921;-74
2022/11/22 09:59:32;;;;;;;18.70;5.32;;;;;;;4.63;100.00;93981.66;5032590;28;20045;-74
2022/11/22 10:02:23;;;;;;;16.63;3.85;;;;;;;4.66;100.00;93984.50;5039132;28;20043;-74
2022/11/22 10:05:12;;;;;;;12.13;4.45;;;;;;;4.57;100.00;93991.34;5043098;28;20574;-74
2022/11/22 10:07:48;;;;;;;14.38;3.47;;;;;;;4.64;100.00;93989.22;5046181;28;20457;-73
2022/11/22 10:10:21;;;;;;;13.23;3.65;;;;;;;4.56;100.00;93987.16;5054506;28;20124;-75
2022/11/22 10:13:00;;;;;;;16.52;4.18;;;;;;;4.59;100.00;93991.84;5049631;28;20045;-74
2022/11/22 10:15:26;;;;;;;10.63;2.78;;;;;;;4.55;100.00;93988.22;5049370;28;20052;-74
2022/11/22 10:17:55;;;;;;;13.57;3.10;;;;;;;4.47;100.00;93978.38;5046746;28;20041;-74
2022/11/22 10:20:23;;;;;;;10.45;3.00;;;;;;;4.45;100.00;93990.88;5053722;28;20031;-76
2022/11/22 10:22:50;;;;;;;7.88;2.70;;;;;;;4.37;100.00;93979.19;5055834;28;20039;-77
2022/11/22 10:25:26;;;;;;;20.92;3.20;;;;;;;4.46;100.00;93976.81;5062644;28;20041;-76
2022/11/22 10:27:58;;;;;;;17.25;3.75;;;;;;;4.35;100.00;93986.47;5077297;28;20085;-77
2022/11/22 10:30:24;;;;;;;12.30;3.13;;;;;;;4.27;100.00;93980.00;5077482;28;20028;-76
2022/11/22 10:33:11;;;;;;;10.27;2.38;;;;;;;4.31;100.00;93986.25;5077247;28;20028;-77
2022/11/22 10:36:19;;;;;;;14.95;3.20;;;;;;;4.34;100.00;93984.94;5077392;28;20040;-74
2022/11/22 10:38:57;;;;;;;8.52;2.60;;;;;;;4.35;100.00;93981.25;5078496;28;20064;-76
2022/11/22 10:41:41;;;;;;;12.15;2.55;;;;;;;4.31;100.00;93986.25;5070953;28;20041;-73
2022/11/22 10:44:19;;;;;;;16.63;3.58;;;;;;;4.34;100.00;93980.50;5051612;28;20049;-75
2022/11/22 10:47:03;;;;;;;9.25;3.13;;;;;;;4.32;100.00;93974.78;5051370;28;20045;-74
2022/11/22 10:49:50;;;;;;;11.15;3.35;;;;;;;4.38;100.00;93969.53;5046946;28;20041;-74
2022/11/22 10:52:28;;;;;;;16.10;4.35;;;;;;;4.33;100.00;93963.31;5045494;28;20305;-74
2022/11/22 10:55:30;;;;;;;35.08;9.18;;;;;;;4.38;100.00;93964.31;5048584;28;20052;-76
2022/11/22 10:58:13;;;;;;;37.17;10.93;;;;;;;4.38;100.00;93964.31;5047107;28;20048;-75
2022/11/22 11:00:43;;;;;;;19.30;5.78;;;;;;;4.33;100.00;93963.31;5039886;28;20134;-74
2022/11/22 11:03:17;;;;;;;17.75;4.57;;;;;;;4.46;100.00;93971.59;5049933;28;20051;-74
2022/11/22 11:06:04;;;;;;;20.30;4.90;;;;;;;4.48;100.00;93964.28;5044665;28;20055;-74
2022/11/22 11:08:43;;;;;;;15.60;4.30;;;;;;;4.50;100.00;93972.63;5048504;28;20048;-74
2022/11/22 11:11:09;;;;;;;12.32;3.58;;;;;;;4.50;100.00;93973.38;5049347;28;20056;-73
2022/11/22 11:13:42;;;;;;;17.83;4.75;;;;;;;4.53;100.00;93982.50;5039003;28;20400;-73
2022/11/22 11:16:11;;;;;;;18.33;3.45;;;;;;;4.66;100.00;93975.91;5049129;28;20037;-76
2022/11/22 11:18:53;;;;;;;20.13;5.00;;;;;;;4.63;100.00;93977.22;5047784;28;20056;-75
2022/11/22 11:21:18;;;;;;;16.92;3.20;;;;;;;4.44;100.00;93973.66;5055820;28;20049;-75
2022/11/22 11:23:44;;;;;;;28.30;7.85;;;;;;;4.43;100.00;93972.13;5035346;28;20053;-76
2022/11/22 11:26:26;;;;;;;10.48;2.63;;;;;;;4.46;100.00;93974.19;5054195;28;20043;-76
2022/11/22 11:29:17;;;;;;;15.48;3.38;;;;;;;4.38;100.00;93972.91;5057077;28;20041;-75
2022/11/22 11:31:45;;;;;;;7.30;2.50;;;;;;;4.30;100.00;93969.03;5060640;28;20414;-75
2022/11/22 11:34:20;;;;;;;17.48;3.50;;;;;;;4.26;100.00;93973.22;5061408;28;20055;-74
2022/11/22 11:36:46;;;;;;;9.55;2.67;;;;;;;4.31;100.00;93970.63;5057524;28;20056;-75
2022/11/22 11:39:23;;;;;;;9.20;2.65;;;;;;;4.19;100.00;93962.31;5054930;28;20037;-75
2022/11/22 11:41:49;;;;;;;11.65;2.95;;;;;;;4.25;100.00;93971.69;5048832;28;20044;-75
2022/11/22 11:44:35;;;;;;;11.02;2.45;;;;;;;4.23;100.00;93973.75;5057904;28;20041;-75
2022/11/22 11:47:02;;;;;;;22.67;5.35;;;;;;;4.15;100.00;93969.09;5036525;28;20461;-74
2022/11/22 11:49:30;;;;;;;6.70;2.88;;;;;;;4.21;100.00;93970.66;5043830;28;20422;-74
2022/11/22 11:52:00;;;;;;;17.58;3.28;;;;;;;4.12;100.00;93967.03;5047634;28;20037;-74
2022/11/22 11:54:29;;;;;;;21.63;4.03;;;;;;;4.02;100.00;93978.25;5056700;28;20045;-74